sensor_id;sensor_type;location;lat;lon;timestamp;pressure;altitude;pressure_sealevel;temperature;humidity
22830;BME280;11581;51.250;6.778;2023-08-07T00:01:16;100789.25;;;16.39;75.09
22830;BME280;11581;51.250;6.778;2023-08-07T00:03:43;100795.16;;;16.35;75.33
22830;BME280;11581;51.250;6.778;2023-08-07T00:06:09;100785.50;;;16.26;75.47
22830;BME280;11581;51.250;6.778;2023-08-07T00:08:37;100790.50;;;16.29;75.75
22830;BME280;11581;51.250;6.778;2023-08-07T00:11:05;100792.56;;;16.27;75.80
22830;BME280;11581;51.250;6.778;2023-08-07T00:13:32;100798.94;;;16.26;75.95
22830;BME280;11581;51.250;6.778;2023-08-07T00:15:58;100789.22;;;16.25;76.00
22830;BME280;11581;51.250;6.778;2023-08-07T00:18:25;100787.56;;;16.24;76.25
22830;BME280;11581;51.250;6.778;2023-08-07T00:20:52;100798.31;;;16.24;76.18
22830;BME280;11581;51.250;6.778;2023-08-07T00:23:18;100796.44;;;16.24;76.20
22830;BME280;11581;51.250;6.778;2023-08-07T00:25:46;100799.97;;;16.25;76.17
22830;BME280;11581;51.250;6.778;2023-08-07T00:28:13;100796.44;;;16.24;76.19
22830;BME280;11581;51.250;6.778;2023-08-07T00:30:39;100800.84;;;16.25;76.23
22830;BME280;11581;51.250;6.778;2023-08-07T00:33:06;100796.00;;;16.21;76.23
22830;BME280;11581;51.250;6.778;2023-08-07T00:35:32;100812.22;;;16.27;76.28
22830;BME280;11581;51.250;6.778;2023-08-07T00:37:59;100805.00;;;16.28;76.07
22830;BME280;11581;51.250;6.778;2023-08-07T00:40:27;100809.34;;;16.29;76.19
22830;BME280;11581;51.250;6.778;2023-08-07T00:42:55;100809.16;;;16.30;76.09
22830;BME280;11581;51.250;6.778;2023-08-07T00:45:21;100754.44;;;16.01;76.06
22830;BME280;11581;51.250;6.778;2023-08-07T00:47:48;100813.34;;;16.33;76.04
22830;BME280;11581;51.250;6.778;2023-08-07T00:50:15;100814.84;;;16.35;75.92
22830;BME280;11581;51.250;6.778;2023-08-07T00:52:42;100811.97;;;16.37;75.92
22830;BME280;11581;51.250;6.778;2023-08-07T00:55:09;100793.88;;;16.31;75.75
22830;BME280;11581;51.250;6.778;2023-08-07T00:57:36;100806.41;;;16.38;75.71
22830;BME280;11581;51.250;6.778;2023-08-07T01:00:06;100812.63;;;16.39;75.53
22830;BME280;11581;51.250;6.778;2023-08-07T01:02:33;100804.34;;;16.40;75.63
22830;BME280;11581;51.250;6.778;2023-08-07T01:05:00;100799.81;;;16.41;75.70
22830;BME280;11581;51.250;6.778;2023-08-07T01:07:27;100807.72;;;16.42;75.78
22830;BME280;11581;51.250;6.778;2023-08-07T01:09:54;100809.41;;;16.43;75.72
22830;BME280;11581;51.250;6.778;2023-08-07T01:12:27;100795.16;;;16.35;75.39
22830;BME280;11581;51.250;6.778;2023-08-07T01:15:02;100816.28;;;16.46;75.26
22830;BME280;11581;51.250;6.778;2023-08-07T01:17:32;100808.84;;;16.48;75.26
22830;BME280;11581;51.250;6.778;2023-08-07T01:20:00;100813.41;;;16.47;75.41
22830;BME280;11581;51.250;6.778;2023-08-07T01:22:29;100815.28;;;16.47;75.30
22830;BME280;11581;51.250;6.778;2023-08-07T01:24:55;100811.56;;;16.48;75.35
22830;BME280;11581;51.250;6.778;2023-08-07T01:27:30;100829.38;;;16.49;74.87
22830;BME280;11581;51.250;6.778;2023-08-07T01:30:03;100693.69;;;15.77;74.91
22830;BME280;11581;51.250;6.778;2023-08-07T01:32:41;100795.41;;;16.48;74.73
22830;BME280;11581;51.250;6.778;2023-08-07T01:35:12;100825.31;;;16.53;74.97
22830;BME280;11581;51.250;6.778;2023-08-07T01:37:42;100826.97;;;16.54;74.86
22830;BME280;11581;51.250;6.778;2023-08-07T01:40:12;100814.38;;;16.54;74.81
22830;BME280;11581;51.250;6.778;2023-08-07T01:42:39;100826.78;;;16.55;74.85
22830;BME280;11581;51.250;6.778;2023-08-07T01:45:07;100655.53;;;15.59;74.80
22830;BME280;11581;51.250;6.778;2023-08-07T01:47:34;100819.56;;;16.56;74.81
22830;BME280;11581;51.250;6.778;2023-08-07T01:50:01;100821.22;;;16.57;74.79
22830;BME280;11581;51.250;6.778;2023-08-07T01:52:28;100812.47;;;16.55;74.65
22830;BME280;11581;51.250;6.778;2023-08-07T01:54:56;100827.34;;;16.51;74.59
22830;BME280;11581;51.250;6.778;2023-08-07T01:57:22;100819.16;;;16.44;74.55
22830;BME280;11581;51.250;6.778;2023-08-07T01:59:49;100832.31;;;16.39;74.76
22830;BME280;11581;51.250;6.778;2023-08-07T02:02:16;100819.56;;;16.33;74.89
22830;BME280;11581;51.250;6.778;2023-08-07T02:04:42;100841.00;;;16.27;75.29
22830;BME280;11581;51.250;6.778;2023-08-07T02:07:09;100833.66;;;16.21;75.54
22830;BME280;11581;51.250;6.778;2023-08-07T02:09:36;100779.38;;;15.80;75.41
22830;BME280;11581;51.250;6.778;2023-08-07T02:12:05;100836.75;;;16.10;75.70
22830;BME280;11581;51.250;6.778;2023-08-07T02:14:32;100811.06;;;15.85;75.81
22830;BME280;11581;51.250;6.778;2023-08-07T02:16:58;100821.41;;;15.96;76.05
22830;BME280;11581;51.250;6.778;2023-08-07T02:19:25;100827.66;;;15.96;76.01
22830;BME280;11581;51.250;6.778;2023-08-07T02:21:52;100830.88;;;15.92;76.20
22830;BME280;11581;51.250;6.778;2023-08-07T02:24:18;100830.56;;;15.87;76.41
22830;BME280;11581;51.250;6.778;2023-08-07T02:26:45;100839.84;;;15.84;76.66
22830;BME280;11581;51.250;6.778;2023-08-07T02:29:13;100846.41;;;15.82;76.79
22830;BME280;11581;51.250;6.778;2023-08-07T02:31:40;100846.78;;;15.79;76.94
22830;BME280;11581;51.250;6.778;2023-08-07T02:34:06;100841.94;;;15.74;76.84
22830;BME280;11581;51.250;6.778;2023-08-07T02:36:33;100845.78;;;15.72;77.30
22830;BME280;11581;51.250;6.778;2023-08-07T02:39:00;100845.16;;;15.70;77.42
22830;BME280;11581;51.250;6.778;2023-08-07T02:41:26;100846.34;;;15.67;77.73
22830;BME280;11581;51.250;6.778;2023-08-07T02:43:53;100840.31;;;15.65;77.82
22830;BME280;11581;51.250;6.778;2023-08-07T02:46:21;100839.63;;;15.63;77.80
22830;BME280;11581;51.250;6.778;2023-08-07T02:48:47;100839.81;;;15.61;77.90
22830;BME280;11581;51.250;6.778;2023-08-07T02:51:15;100831.09;;;15.59;78.03
22830;BME280;11581;51.250;6.778;2023-08-07T02:53:42;100835.81;;;15.57;78.03
22830;BME280;11581;51.250;6.778;2023-08-07T02:56:08;100851.25;;;15.55;78.11
22830;BME280;11581;51.250;6.778;2023-08-07T02:58:36;100853.94;;;15.55;78.28
22830;BME280;11581;51.250;6.778;2023-08-07T03:01:03;100834.22;;;15.40;78.48
22830;BME280;11581;51.250;6.778;2023-08-07T03:03:32;100859.53;;;15.54;78.61
22830;BME280;11581;51.250;6.778;2023-08-07T03:05:59;100849.59;;;15.54;78.59
22830;BME280;11581;51.250;6.778;2023-08-07T03:08:25;100846.91;;;15.54;78.81
22830;BME280;11581;51.250;6.778;2023-08-07T03:10:53;100857.50;;;15.56;78.86
22830;BME280;11581;51.250;6.778;2023-08-07T03:13:23;100697.63;;;14.60;78.60
22830;BME280;11581;51.250;6.778;2023-08-07T03:15:50;100857.31;;;15.57;78.71
22830;BME280;11581;51.250;6.778;2023-08-07T03:18:17;100864.34;;;15.58;78.76
22830;BME280;11581;51.250;6.778;2023-08-07T03:20:45;100868.72;;;15.59;78.78
22830;BME280;11581;51.250;6.778;2023-08-07T03:23:11;100690.78;;;14.50;78.81
22830;BME280;11581;51.250;6.778;2023-08-07T03:25:38;100855.94;;;15.61;78.80
22830;BME280;11581;51.250;6.778;2023-08-07T03:28:05;100788.47;;;15.18;78.76
22830;BME280;11581;51.250;6.778;2023-08-07T03:30:31;100856.59;;;15.63;78.81
22830;BME280;11581;51.250;6.778;2023-08-07T03:32:58;100860.97;;;15.64;78.59
22830;BME280;11581;51.250;6.778;2023-08-07T03:35:25;100850.72;;;15.60;78.54
22830;BME280;11581;51.250;6.778;2023-08-07T03:37:53;100858.94;;;15.67;78.65
22830;BME280;11581;51.250;6.778;2023-08-07T03:40:19;100855.22;;;15.68;78.59
22830;BME280;11581;51.250;6.778;2023-08-07T03:42:46;100863.28;;;15.68;78.40
22830;BME280;11581;51.250;6.778;2023-08-07T03:45:13;100861.47;;;15.68;78.43
22830;BME280;11581;51.250;6.778;2023-08-07T03:47:40;100869.34;;;15.70;78.33
22830;BME280;11581;51.250;6.778;2023-08-07T03:50:07;100871.00;;;15.71;78.20
22830;BME280;11581;51.250;6.778;2023-08-07T03:52:34;100869.34;;;15.70;78.17
22830;BME280;11581;51.250;6.778;2023-08-07T03:55:02;100870.16;;;15.70;78.27
22830;BME280;11581;51.250;6.778;2023-08-07T03:57:29;100879.06;;;15.71;78.09
22830;BME280;11581;51.250;6.778;2023-08-07T03:59:55;100875.53;;;15.70;78.18
22830;BME280;11581;51.250;6.778;2023-08-07T04:02:22;100872.03;;;15.70;77.98
22830;BME280;11581;51.250;6.778;2023-08-07T04:04:49;100868.31;;;15.71;78.08
22830;BME280;11581;51.250;6.778;2023-08-07T04:07:15;100861.91;;;15.72;78.00
22830;BME280;11581;51.250;6.778;2023-08-07T04:09:43;100869.97;;;15.72;77.94
22830;BME280;11581;51.250;6.778;2023-08-07T04:12:11;100856.78;;;15.62;77.82
22830;BME280;11581;51.250;6.778;2023-08-07T04:14:37;100867.28;;;15.72;77.93
22830;BME280;11581;51.250;6.778;2023-08-07T04:17:04;100875.38;;;15.72;77.98
22830;BME280;11581;51.250;6.778;2023-08-07T04:19:31;100869.97;;;15.72;78.10
22830;BME280;11581;51.250;6.778;2023-08-07T04:21:57;100871.69;;;15.73;78.16
22830;BME280;11581;51.250;6.778;2023-08-07T04:24:24;100870.84;;;15.72;78.00
22830;BME280;11581;51.250;6.778;2023-08-07T04:26:51;100874.19;;;15.74;78.02
22830;BME280;11581;51.250;6.778;2023-08-07T04:29:20;100862.31;;;15.69;77.88
22830;BME280;11581;51.250;6.778;2023-08-07T04:31:46;100873.00;;;15.77;77.99
22830;BME280;11581;51.250;6.778;2023-08-07T04:34:13;100865.78;;;15.77;78.02
22830;BME280;11581;51.250;6.778;2023-08-07T04:36:39;100886.09;;;15.80;78.03
22830;BME280;11581;51.250;6.778;2023-08-07T04:39:06;100873.66;;;15.79;77.91
22830;BME280;11581;51.250;6.778;2023-08-07T04:41:34;100871.63;;;15.81;77.90
22830;BME280;11581;51.250;6.778;2023-08-07T04:44:01;100874.97;;;15.83;77.87
22830;BME280;11581;51.250;6.778;2023-08-07T04:46:30;100876.63;;;15.84;77.67
22830;BME280;11581;51.250;6.778;2023-08-07T04:48:58;100881.00;;;15.85;77.70
22830;BME280;11581;51.250;6.778;2023-08-07T04:51:26;100881.66;;;15.87;77.66
22830;BME280;11581;51.250;6.778;2023-08-07T04:53:53;100883.31;;;15.88;77.70
22830;BME280;11581;51.250;6.778;2023-08-07T04:56:22;100889.38;;;15.90;77.62
22830;BME280;11581;51.250;6.778;2023-08-07T04:58:48;100888.34;;;15.91;77.52
22830;BME280;11581;51.250;6.778;2023-08-07T05:01:15;100876.47;;;15.85;77.59
22830;BME280;11581;51.250;6.778;2023-08-07T05:03:43;100889.03;;;15.93;77.64
22830;BME280;11581;51.250;6.778;2023-08-07T05:06:09;100893.38;;;15.94;77.59
22830;BME280;11581;51.250;6.778;2023-08-07T05:08:36;100887.00;;;15.95;77.62
22830;BME280;11581;51.250;6.778;2023-08-07T05:11:03;100891.34;;;15.96;77.45
22830;BME280;11581;51.250;6.778;2023-08-07T05:13:29;100891.34;;;15.96;77.46
22830;BME280;11581;51.250;6.778;2023-08-07T05:15:56;100891.34;;;15.96;77.36
22830;BME280;11581;51.250;6.778;2023-08-07T05:18:22;100892.22;;;15.96;77.41
22830;BME280;11581;51.250;6.778;2023-08-07T05:20:50;100890.50;;;15.95;77.44
22830;BME280;11581;51.250;6.778;2023-08-07T05:23:17;100891.34;;;15.96;77.41
22830;BME280;11581;51.250;6.778;2023-08-07T05:25:45;100896.75;;;15.96;77.37
22830;BME280;11581;51.250;6.778;2023-08-07T05:28:12;100891.34;;;15.96;77.39
22830;BME280;11581;51.250;6.778;2023-08-07T05:30:39;100854.25;;;15.69;77.37
22830;BME280;11581;51.250;6.778;2023-08-07T05:33:05;100893.38;;;15.94;77.39
22830;BME280;11581;51.250;6.778;2023-08-07T05:35:32;100898.75;;;15.94;77.28
22830;BME280;11581;51.250;6.778;2023-08-07T05:38:00;100888.00;;;15.94;77.36
22830;BME280;11581;51.250;6.778;2023-08-07T05:40:26;100891.72;;;15.93;77.69
22830;BME280;11581;51.250;6.778;2023-08-07T05:42:55;100881.66;;;15.87;77.58
22830;BME280;11581;51.250;6.778;2023-08-07T05:45:21;100892.75;;;15.92;77.82
22830;BME280;11581;51.250;6.778;2023-08-07T05:47:48;100894.09;;;15.88;77.92
22830;BME280;11581;51.250;6.778;2023-08-07T05:50:14;100899.59;;;15.94;77.89
22830;BME280;11581;51.250;6.778;2023-08-07T05:52:41;100898.75;;;15.94;77.84
22830;BME280;11581;51.250;6.778;2023-08-07T05:55:09;100904.13;;;15.94;78.03
22830;BME280;11581;51.250;6.778;2023-08-07T05:57:36;100906.81;;;15.94;78.10
22830;BME280;11581;51.250;6.778;2023-08-07T06:00:03;100908.69;;;15.93;78.10
22830;BME280;11581;51.250;6.778;2023-08-07T06:02:37;100901.44;;;15.94;78.17
22830;BME280;11581;51.250;6.778;2023-08-07T06:05:04;100890.09;;;15.84;78.28
22830;BME280;11581;51.250;6.778;2023-08-07T06:07:31;100916.94;;;15.92;78.42
22830;BME280;11581;51.250;6.778;2023-08-07T06:09:57;100901.50;;;15.86;78.36
22830;BME280;11581;51.250;6.778;2023-08-07T06:12:25;100926.00;;;15.91;78.55
22830;BME280;11581;51.250;6.778;2023-08-07T06:14:53;100917.28;;;15.89;78.75
22830;BME280;11581;51.250;6.778;2023-08-07T06:17:20;100918.13;;;15.89;78.78
22830;BME280;11581;51.250;6.778;2023-08-07T06:19:47;100918.28;;;15.88;78.71
22830;BME280;11581;51.250;6.778;2023-08-07T06:22:13;100922.00;;;15.87;78.82
22830;BME280;11581;51.250;6.778;2023-08-07T06:24:40;100924.69;;;15.87;79.00
22830;BME280;11581;51.250;6.778;2023-08-07T06:27:06;100935.44;;;15.87;79.11
22830;BME280;11581;51.250;6.778;2023-08-07T06:29:34;100933.78;;;15.86;79.10
22830;BME280;11581;51.250;6.778;2023-08-07T06:32:01;100933.78;;;15.86;79.23
22830;BME280;11581;51.250;6.778;2023-08-07T06:34:28;100932.09;;;15.85;79.39
22830;BME280;11581;51.250;6.778;2023-08-07T06:36:54;100944.53;;;15.86;79.66
22830;BME280;11581;51.250;6.778;2023-08-07T06:39:21;100946.03;;;15.88;79.64
22830;BME280;11581;51.250;6.778;2023-08-07T06:41:48;100937.97;;;15.88;79.88
22830;BME280;11581;51.250;6.778;2023-08-07T06:44:18;100945.00;;;15.89;79.83
22830;BME280;11581;51.250;6.778;2023-08-07T06:46:49;100944.84;;;15.91;79.94
22830;BME280;11581;51.250;6.778;2023-08-07T06:49:15;100950.22;;;15.91;80.05
22830;BME280;11581;51.250;6.778;2023-08-07T06:51:42;100951.91;;;15.92;79.93
22830;BME280;11581;51.250;6.778;2023-08-07T06:54:09;100952.91;;;15.91;79.76
22830;BME280;11581;51.250;6.778;2023-08-07T06:56:35;100952.91;;;15.91;79.65
22830;BME280;11581;51.250;6.778;2023-08-07T06:59:03;100968.41;;;15.89;79.64
22830;BME280;11581;51.250;6.778;2023-08-07T07:01:30;100961.31;;;15.88;79.67
22830;BME280;11581;51.250;6.778;2023-08-07T07:03:58;100975.78;;;15.87;79.72
22830;BME280;11581;51.250;6.778;2023-08-07T07:06:25;100987.56;;;15.86;79.65
22830;BME280;11581;51.250;6.778;2023-08-07T07:08:52;100961.72;;;15.77;79.80
22830;BME280;11581;51.250;6.778;2023-08-07T07:11:20;100973.47;;;15.84;79.92
22830;BME280;11581;51.250;6.778;2023-08-07T07:13:48;100979.84;;;15.83;80.03
22830;BME280;11581;51.250;6.778;2023-08-07T07:16:14;100981.69;;;15.82;80.10
22830;BME280;11581;51.250;6.778;2023-08-07T07:18:41;100949.03;;;15.63;80.32
22830;BME280;11581;51.250;6.778;2023-08-07T07:21:09;100985.41;;;15.81;80.53
22830;BME280;11581;51.250;6.778;2023-08-07T07:23:36;100993.47;;;15.81;80.56
22830;BME280;11581;51.250;6.778;2023-08-07T07:26:03;100983.75;;;15.72;80.60
22830;BME280;11581;51.250;6.778;2023-08-07T07:28:29;100994.50;;;15.80;80.71
22830;BME280;11581;51.250;6.778;2023-08-07T07:30:56;100989.31;;;15.71;80.87
22830;BME280;11581;51.250;6.778;2023-08-07T07:33:23;100999.03;;;15.80;80.76
22830;BME280;11581;51.250;6.778;2023-08-07T07:35:49;101009.78;;;15.80;80.83
22830;BME280;11581;51.250;6.778;2023-08-07T07:38:17;100969.53;;;15.55;80.85
22830;BME280;11581;51.250;6.778;2023-08-07T07:40:44;101023.22;;;15.80;80.95
22830;BME280;11581;51.250;6.778;2023-08-07T07:43:11;101020.53;;;15.80;80.88
22830;BME280;11581;51.250;6.778;2023-08-07T07:45:37;101007.84;;;15.66;80.88
22830;BME280;11581;51.250;6.778;2023-08-07T07:48:04;101031.31;;;15.80;81.02
22830;BME280;11581;51.250;6.778;2023-08-07T07:50:33;101039.38;;;15.80;81.21
22830;BME280;11581;51.250;6.778;2023-08-07T07:53:00;101042.91;;;15.80;81.11
22830;BME280;11581;51.250;6.778;2023-08-07T07:55:28;101045.44;;;15.82;81.09
22830;BME280;11581;51.250;6.778;2023-08-07T07:57:55;101049.78;;;15.83;81.27
22830;BME280;11581;51.250;6.778;2023-08-07T08:00:22;101054.00;;;15.77;81.46
22830;BME280;11581;51.250;6.778;2023-08-07T08:02:51;101076.97;;;15.88;81.51
22830;BME280;11581;51.250;6.778;2023-08-07T08:05:18;101076.63;;;15.91;81.61
22830;BME280;11581;51.250;6.778;2023-08-07T08:07:45;101074.63;;;15.93;81.75
22830;BME280;11581;51.250;6.778;2023-08-07T08:10:12;101067.06;;;15.96;81.84
22830;BME280;11581;51.250;6.778;2023-08-07T08:12:40;101093.78;;;15.98;81.66
22830;BME280;11581;51.250;6.778;2023-08-07T08:15:07;100983.38;;;15.28;81.76
22830;BME280;11581;51.250;6.778;2023-08-07T08:17:34;101090.00;;;16.07;82.14
22830;BME280;11581;51.250;6.778;2023-08-07T08:20:01;101097.56;;;16.11;82.33
22830;BME280;11581;51.250;6.778;2023-08-07T08:22:28;101070.72;;;16.03;82.46
22830;BME280;11581;51.250;6.778;2023-08-07T08:24:54;101103.41;;;16.23;82.69
22830;BME280;11581;51.250;6.778;2023-08-07T08:27:21;101104.75;;;16.27;82.44
22830;BME280;11581;51.250;6.778;2023-08-07T08:29:49;101116.50;;;16.34;82.39
22830;BME280;11581;51.250;6.778;2023-08-07T08:32:16;101105.19;;;16.38;82.24
22830;BME280;11581;51.250;6.778;2023-08-07T08:34:43;101107.53;;;16.41;82.06
22830;BME280;11581;51.250;6.778;2023-08-07T08:37:09;101108.03;;;16.45;81.88
22830;BME280;11581;51.250;6.778;2023-08-07T08:39:36;101077.44;;;16.30;81.98
22830;BME280;11581;51.250;6.778;2023-08-07T08:42:04;101108.00;;;16.53;82.21
22830;BME280;11581;51.250;6.778;2023-08-07T08:44:31;101117.22;;;16.58;82.47
22830;BME280;11581;51.250;6.778;2023-08-07T08:47:00;101110.28;;;16.64;82.37
22830;BME280;11581;51.250;6.778;2023-08-07T08:49:32;101078.03;;;16.56;82.40
22830;BME280;11581;51.250;6.778;2023-08-07T08:51:59;101112.03;;;16.79;82.70
22830;BME280;11581;51.250;6.778;2023-08-07T08:54:26;101100.88;;;16.82;82.64
22830;BME280;11581;51.250;6.778;2023-08-07T08:56:54;101119.44;;;17.00;83.09
22830;BME280;11581;51.250;6.778;2023-08-07T08:59:22;101123.91;;;17.15;84.21
22830;BME280;11581;51.250;6.778;2023-08-07T09:01:51;101110.81;;;17.27;84.99
22830;BME280;11581;51.250;6.778;2023-08-07T09:04:19;101131.72;;;17.62;85.66
22830;BME280;11581;51.250;6.778;2023-08-07T09:06:46;101133.91;;;17.96;86.80
22830;BME280;11581;51.250;6.778;2023-08-07T09:09:14;101131.59;;;18.36;87.47
22830;BME280;11581;51.250;6.778;2023-08-07T09:11:42;101092.03;;;18.64;88.83
22830;BME280;11581;51.250;6.778;2023-08-07T09:14:11;101133.25;;;19.50;89.31
22830;BME280;11581;51.250;6.778;2023-08-07T09:16:41;101129.13;;;20.16;88.14
22830;BME280;11581;51.250;6.778;2023-08-07T09:19:08;101133.75;;;20.76;85.61
22830;BME280;11581;51.250;6.778;2023-08-07T09:21:36;101126.13;;;21.18;79.51
22830;BME280;11581;51.250;6.778;2023-08-07T09:24:03;101128.66;;;21.52;75.06
22830;BME280;11581;51.250;6.778;2023-08-07T09:26:32;101131.78;;;21.69;69.60
22830;BME280;11581;51.250;6.778;2023-08-07T09:28:59;101140.16;;;21.74;69.57
22830;BME280;11581;51.250;6.778;2023-08-07T09:31:26;101148.94;;;21.76;68.00
22830;BME280;11581;51.250;6.778;2023-08-07T09:33:53;101150.38;;;21.65;67.48
22830;BME280;11581;51.250;6.778;2023-08-07T09:36:19;101124.28;;;21.38;66.84
22830;BME280;11581;51.250;6.778;2023-08-07T09:38:50;101155.78;;;21.33;64.57
22830;BME280;11581;51.250;6.778;2023-08-07T09:41:44;101151.16;;;21.14;63.97
22830;BME280;11581;51.250;6.778;2023-08-07T09:44:17;101139.44;;;20.94;68.29
22830;BME280;11581;51.250;6.778;2023-08-07T09:46:44;101151.91;;;20.82;67.96
22830;BME280;11581;51.250;6.778;2023-08-07T09:49:11;101166.50;;;20.81;68.65
22830;BME280;11581;51.250;6.778;2023-08-07T09:51:42;101165.63;;;20.74;66.45
22830;BME280;11581;51.250;6.778;2023-08-07T09:54:11;101135.47;;;20.36;67.36
22830;BME280;11581;51.250;6.778;2023-08-07T09:56:38;101044.16;;;19.83;67.18
22830;BME280;11581;51.250;6.778;2023-08-07T09:59:05;101168.50;;;20.53;67.01
22830;BME280;11581;51.250;6.778;2023-08-07T10:01:31;101150.88;;;20.36;67.10
22830;BME280;11581;51.250;6.778;2023-08-07T10:03:58;101185.94;;;20.44;67.59
22830;BME280;11581;51.250;6.778;2023-08-07T10:06:26;101171.69;;;20.29;68.38
22830;BME280;11581;51.250;6.778;2023-08-07T10:08:54;101149.94;;;20.16;68.02
22830;BME280;11581;51.250;6.778;2023-08-07T10:11:23;101174.94;;;20.52;68.43
22830;BME280;11581;51.250;6.778;2023-08-07T10:13:50;101181.66;;;20.69;70.70
22830;BME280;11581;51.250;6.778;2023-08-07T10:16:16;101132.94;;;20.82;72.98
22830;BME280;11581;51.250;6.778;2023-08-07T10:18:43;101095.88;;;21.02;73.28
22830;BME280;11581;51.250;6.778;2023-08-07T10:21:10;101149.91;;;22.01;72.23
22830;BME280;11581;51.250;6.778;2023-08-07T10:23:38;101179.41;;;22.74;70.53
22830;BME280;11581;51.250;6.778;2023-08-07T10:26:08;101153.09;;;23.37;67.69
22830;BME280;11581;51.250;6.778;2023-08-07T10:28:39;101162.47;;;24.15;65.05
22830;BME280;11581;51.250;6.778;2023-08-07T10:31:07;101172.91;;;24.90;66.66
22830;BME280;11581;51.250;6.778;2023-08-07T10:33:36;101075.16;;;24.87;62.11
22830;BME280;11581;51.250;6.778;2023-08-07T10:36:08;101161.44;;;26.04;53.85
22830;BME280;11581;51.250;6.778;2023-08-07T10:38:36;101120.06;;;26.13;58.21
22830;BME280;11581;51.250;6.778;2023-08-07T10:41:06;101159.81;;;26.66;51.84
22830;BME280;11581;51.250;6.778;2023-08-07T10:43:38;101163.47;;;27.00;51.41
22830;BME280;11581;51.250;6.778;2023-08-07T10:46:05;101166.47;;;27.26;54.00
22830;BME280;11581;51.250;6.778;2023-08-07T10:48:38;101151.81;;;27.49;47.77
22830;BME280;11581;51.250;6.778;2023-08-07T10:51:06;101153.97;;;27.63;51.56
22830;BME280;11581;51.250;6.778;2023-08-07T10:53:34;101159.50;;;27.68;48.77
22830;BME280;11581;51.250;6.778;2023-08-07T10:56:02;101148.06;;;27.55;48.53
22830;BME280;11581;51.250;6.778;2023-08-07T10:58:30;101163.25;;;27.46;47.61
22830;BME280;11581;51.250;6.778;2023-08-07T11:01:18;101107.78;;;26.78;45.80
22830;BME280;11581;51.250;6.778;2023-08-07T11:03:48;101174.38;;;27.11;44.96
22830;BME280;11581;51.250;6.778;2023-08-07T11:06:16;101129.78;;;26.71;47.49
22830;BME280;11581;51.250;6.778;2023-08-07T11:08:42;101178.41;;;27.09;46.98
22830;BME280;11581;51.250;6.778;2023-08-07T11:11:09;101186.88;;;27.07;46.25
22830;BME280;11581;51.250;6.778;2023-08-07T11:13:36;101180.34;;;27.08;47.33
22830;BME280;11581;51.250;6.778;2023-08-07T11:16:03;101186.00;;;27.18;46.78
22830;BME280;11581;51.250;6.778;2023-08-07T11:18:32;101176.53;;;27.37;46.05
22830;BME280;11581;51.250;6.778;2023-08-07T11:21:01;101169.31;;;27.64;46.47
22830;BME280;11581;51.250;6.778;2023-08-07T11:23:28;101178.03;;;27.94;45.80
22830;BME280;11581;51.250;6.778;2023-08-07T11:25:55;101149.13;;;28.03;45.36
22830;BME280;11581;51.250;6.778;2023-08-07T11:28:23;101186.66;;;28.58;44.25
22830;BME280;11581;51.250;6.778;2023-08-07T11:30:51;101161.63;;;28.76;41.57
22830;BME280;11581;51.250;6.778;2023-08-07T11:33:19;101189.25;;;29.12;42.45
22830;BME280;11581;51.250;6.778;2023-08-07T11:35:48;101175.44;;;29.34;38.78
22830;BME280;11581;51.250;6.778;2023-08-07T11:38:29;101165.19;;;29.51;38.20
22830;BME280;11581;51.250;6.778;2023-08-07T11:40:57;101174.81;;;29.53;39.58
22830;BME280;11581;51.250;6.778;2023-08-07T11:43:24;101175.69;;;29.59;39.66
22830;BME280;11581;51.250;6.778;2023-08-07T11:45:51;101184.34;;;29.46;39.36
22830;BME280;11581;51.250;6.778;2023-08-07T11:48:18;101003.94;;;28.13;38.60
22830;BME280;11581;51.250;6.778;2023-08-07T11:50:45;101171.13;;;28.90;38.01
22830;BME280;11581;51.250;6.778;2023-08-07T11:53:13;101144.31;;;28.32;37.62
22830;BME280;11581;51.250;6.778;2023-08-07T11:55:46;101149.22;;;28.08;35.96
22830;BME280;11581;51.250;6.778;2023-08-07T11:58:13;101168.72;;;27.79;39.10
22830;BME280;11581;51.250;6.778;2023-08-07T12:00:43;101189.81;;;27.62;37.30
22830;BME280;11581;51.250;6.778;2023-08-07T12:03:23;101196.09;;;27.29;37.57
22830;BME280;11581;51.250;6.778;2023-08-07T12:05:50;101194.75;;;27.04;39.89
22830;BME280;11581;51.250;6.778;2023-08-07T12:08:18;101187.50;;;26.70;38.92
22830;BME280;11581;51.250;6.778;2023-08-07T12:10:49;101206.78;;;26.52;38.59
22830;BME280;11581;51.250;6.778;2023-08-07T12:13:15;101207.84;;;26.39;42.26
22830;BME280;11581;51.250;6.778;2023-08-07T12:15:42;101160.00;;;26.14;42.97
22830;BME280;11581;51.250;6.778;2023-08-07T12:18:09;101195.59;;;26.53;45.09
22830;BME280;11581;51.250;6.778;2023-08-07T12:20:37;101195.66;;;26.81;45.10
22830;BME280;11581;51.250;6.778;2023-08-07T12:23:04;101197.44;;;27.15;45.12
22830;BME280;11581;51.250;6.778;2023-08-07T12:25:34;101166.13;;;27.39;40.07
22830;BME280;11581;51.250;6.778;2023-08-07T12:28:01;101189.91;;;27.83;43.72
22830;BME280;11581;51.250;6.778;2023-08-07T12:30:28;101162.78;;;27.98;43.14
22830;BME280;11581;51.250;6.778;2023-08-07T12:32:58;101190.84;;;28.44;42.64
22830;BME280;11581;51.250;6.778;2023-08-07T12:35:25;101197.75;;;28.68;42.17
22830;BME280;11581;51.250;6.778;2023-08-07T12:37:52;101149.59;;;28.55;40.20
22830;BME280;11581;51.250;6.778;2023-08-07T12:43:42;101183.72;;;28.86;38.78
22830;BME280;11581;51.250;6.778;2023-08-07T12:46:09;101193.47;;;28.98;40.03
22830;BME280;11581;51.250;6.778;2023-08-07T12:48:36;101202.53;;;28.99;39.24
22830;BME280;11581;51.250;6.778;2023-08-07T12:51:03;101187.09;;;28.93;39.07
22830;BME280;11581;51.250;6.778;2023-08-07T12:53:29;101189.84;;;28.93;38.17
22830;BME280;11581;51.250;6.778;2023-08-07T12:55:57;101189.38;;;28.79;39.18